Time;durP1;ratioP1;P1;durP2;ratioP2;P2;SDS_P1;SDS_P2;PMS_P1;PMS_P2;Temp;Humidity;BMP_temperature;BMP_pressure;BME280_temperature;BME280_humidity;BME280_pressure;Samples;Min_cycle;Max_cycle;Signal;HPM_P1;HPM_P2
2022/04/17 00:00:13;;;;;;;;;;;;;;;11.35;36.26;100485.63;4483284;32;32776;-62
2022/04/17 00:02:41;;;;;;;;;;;;;;;10.86;34.86;100496.88;4485226;31;34102;-64
2022/04/17 00:05:09;;;;;;;;;;;;;;;10.87;34.90;100492.38;4468627;32;32703;-62
2022/04/17 00:07:39;;;;;;;;;;;;;;;10.85;33.90;100488.91;4483331;31;33136;-62
2022/04/17 00:10:08;;;;;;;;;;;;;;;10.28;37.52;100491.63;4484057;31;33051;-64
2022/04/17 00:12:37;;;;;;;;;;;;;;;10.37;34.88;100485.69;4487766;31;33890;-64
2022/04/17 00:15:06;;;;;;;;;;;;;;;10.35;35.27;100480.44;4483787;31;35412;-64
2022/04/17 00:17:37;;;;;;;;;;;;;;;10.37;34.19;100483.91;4490431;31;33950;-66
2022/04/17 00:20:05;;;;;;;;;;;;;;;10.26;34.53;100486.38;4485224;31;33161;-63
2022/04/17 00:22:33;;;;;;;;;;;;;;;10.28;33.57;100483.63;4492735;31;33106;-62
2022/04/17 00:25:01;;;;;;;;;;;;;;;9.91;32.30;100484.00;4475799;31;32563;-62
2022/04/17 00:27:30;;;;;;;;;;;;;;;9.57;35.34;100480.66;4493469;31;33501;-62
2022/04/17 00:29:58;;;;;;;;;;;;;;;9.03;33.10;100484.72;4474181;31;31936;-63
2022/04/17 00:32:26;;;;;;;;;;;;;;;8.16;33.90;100479.66;4482729;31;34769;-62
2022/04/17 00:34:54;;;;;;;;;;;;;;;8.57;33.31;100477.47;4484288;31;35166;-63
2022/04/17 00:37:22;;;;;;;;;;;;;;;8.63;32.82;100484.25;4483503;32;35045;-63
2022/04/17 00:39:52;;;;;;;;;;;;;;;8.60;33.04;100479.97;4482128;32;33775;-62
2022/04/17 00:42:21;;;;;;;;;;;;;;;8.57;33.47;100480.13;4484059;31;33412;-62
2022/04/17 00:44:52;;;;;;;;;;;;;;;8.53;35.56;100488.37;4482005;31;34272;-61
2022/04/17 00:47:22;;;;;;;;;;;;;;;8.46;33.14;100471.84;4483234;31;35139;-62
2022/04/17 00:49:51;;;;;;;;;;;;;;;8.24;33.61;100471.25;4482497;31;33707;-62
2022/04/17 00:52:21;;;;;;;;;;;;;;;8.52;33.91;100476.84;4483987;31;32881;-63
2022/04/17 00:54:53;;;;;;;;;;;;;;;8.59;34.06;100464.03;4469184;32;34271;-63
2022/04/17 00:57:23;;;;;;;;;;;;;;;8.85;35.12;100465.25;4469256;31;33060;-63
2022/04/17 00:59:52;;;;;;;;;;;;;;;8.56;36.69;100462.38;4482878;32;33393;-66
2022/04/17 01:02:22;;;;;;;;;;;;;;;8.40;32.78;100470.38;4468833;31;34535;-61
2022/04/17 01:04:51;;;;;;;;;;;;;;;8.64;33.62;100464.66;4486489;31;34123;-66
2022/04/17 01:07:22;;;;;;;;;;;;;;;8.61;32.38;100462.16;4495122;31;32823;-62
2022/04/17 01:09:52;;;;;;;;;;;;;;;8.15;32.63;100460.16;4483274;31;32879;-62
2022/04/17 01:12:21;;;;;;;;;;;;;;;8.39;33.02;100459.78;4494121;31;35362;-64
2022/04/17 01:14:51;;;;;;;;;;;;;;;8.09;32.74;100462.25;4471909;31;34399;-64
2022/04/17 01:17:21;;;;;;;;;;;;;;;7.90;33.06;100457.06;4481896;31;35342;-64
2022/04/17 01:19:50;;;;;;;;;;;;;;;8.61;33.49;100460.34;4490567;31;34024;-62
2022/04/17 01:22:18;;;;;;;;;;;;;;;8.14;33.49;100453.06;4487356;31;33480;-64
2022/04/17 01:27:36;;;;;;;;;;;;;;;8.66;35.46;100459.22;4488565;31;34846;-64
2022/04/17 01:30:06;;;;;;;;;;;;;;;8.68;32.21;100457.34;4484720;31;33543;-61
2022/04/17 01:32:35;;;;;;;;;;;;;;;8.95;32.38;100468.25;4490298;31;33974;-61
2022/04/17 01:35:04;;;;;;;;;;;;;;;9.32;31.61;100462.53;4481621;31;34162;-61
2022/04/17 01:37:34;;;;;;;;;;;;;;;8.47;32.70;100454.88;4467826;31;32494;-61
2022/04/17 01:40:03;;;;;;;;;;;;;;;9.27;35.72;100461.06;4481295;32;35554;-62
2022/04/17 01:42:32;;;;;;;;;;;;;;;9.96;31.01;100452.50;4481908;32;32877;-64
2022/04/17 01:45:01;;;;;;;;;;;;;;;9.22;30.01;100450.66;4490261;31;34123;-64
2022/04/17 01:47:30;;;;;;;;;;;;;;;9.41;32.01;100450.47;4489482;31;34357;-63
2022/04/17 01:49:59;;;;;;;;;;;;;;;9.17;32.88;100451.88;4491227;31;32670;-65
2022/04/17 01:52:28;;;;;;;;;;;;;;;9.65;31.83;100449.94;4500178;31;33994;-65
2022/04/17 01:54:55;;;;;;;;;;;;;;;10.24;30.07;100445.44;4487022;31;34216;-62
2022/04/17 01:57:23;;;;;;;;;;;;;;;10.94;30.03;100442.78;4487785;31;32910;-65
2022/04/17 01:59:50;;;;;;;;;;;;;;;10.41;29.45;100450.63;4487991;31;33212;-63
2022/04/17 02:02:20;;;;;;;;;;;;;;;9.80;32.96;100444.53;4495528;31;33941;-62
2022/04/17 02:04:50;;;;;;;;;;;;;;;9.72;30.86;100440.59;4487315;31;32980;-62
2022/04/17 02:07:19;;;;;;;;;;;;;;;9.88;30.64;100436.03;4484389;32;35073;-62
2022/04/17 02:09:49;;;;;;;;;;;;;;;9.71;32.47;100441.56;4494949;31;33480;-62
2022/04/17 02:12:17;;;;;;;;;;;;;;;10.36;29.50;100427.78;4484937;31;34895;-62
2022/04/17 02:14:49;;;;;;;;;;;;;;;10.06;30.11;100435.88;4488815;31;32894;-62
2022/04/17 02:17:19;;;;;;;;;;;;;;;10.27;32.04;100429.22;4484362;31;33943;-65
2022/04/17 02:19:48;;;;;;;;;;;;;;;9.69;29.83;100432.75;4491158;31;31970;-64
2022/04/17 02:22:17;;;;;;;;;;;;;;;9.41;31.28;100415.72;4495515;31;34264;-65
2022/04/17 02:24:46;;;;;;;;;;;;;;;9.92;30.93;100423.34;4485938;31;33420;-65
2022/04/17 02:27:16;;;;;;;;;;;;;;;10.34;31.83;100424.38;4486471;31;33150;-64
2022/04/17 02:29:45;;;;;;;;;;;;;;;11.27;28.62;100415.63;4485935;31;33131;-65
2022/04/17 02:32:15;;;;;;;;;;;;;;;11.69;27.84;100415.50;4483238;31;34248;-66
2022/04/17 02:34:45;;;;;;;;;;;;;;;12.01;27.41;100413.28;4496801;31;33844;-64
2022/04/17 02:37:13;;;;;;;;;;;;;;;12.10;26.70;100409.94;4485934;32;33931;-66
2022/04/17 02:39:42;;;;;;;;;;;;;;;12.23;27.06;100410.81;4485875;31;33562;-63
2022/04/17 02:42:10;;;;;;;;;;;;;;;11.57;26.95;100409.13;4489018;31;35340;-62
2022/04/17 02:44:39;;;;;;;;;;;;;;;10.42;29.15;100406.00;4485598;31;34290;-65
2022/04/17 02:49:56;;;;;;;;;;;;;;;10.54;29.65;100402.53;4485400;31;31940;-63
2022/04/17 02:52:25;;;;;;;;;;;;;;;9.59;30.69;100394.19;4493000;31;34002;-64
2022/04/17 02:54:54;;;;;;;;;;;;;;;9.92;28.79;100393.94;4494514;31;33511;-66
2022/04/17 02:57:25;;;;;;;;;;;;;;;9.24;33.38;100386.47;4492655;31;34514;-64
2022/04/17 02:59:53;;;;;;;;;;;;;;;8.80;31.08;100403.25;4491248;31;32127;-63
2022/04/17 03:07:58;;;;;;;;;;;;;;;8.18;30.54;100400.44;4490049;31;35269;-67
2022/04/17 03:10:28;;;;;;;;;;;;;;;7.63;32.26;100406.91;4493406;31;34098;-62
2022/04/17 03:12:56;;;;;;;;;;;;;;;8.04;31.27;100409.19;4495690;31;33957;-66
2022/04/17 03:15:25;;;;;;;;;;;;;;;7.65;32.07;100414.81;4490565;31;34464;-64
2022/04/17 03:17:55;;;;;;;;;;;;;;;7.84;32.98;100409.41;4496443;31;34040;-66
2022/04/17 03:20:26;;;;;;;;;;;;;;;7.91;32.08;100416.13;4491302;31;34446;-64
2022/04/17 03:22:54;;;;;;;;;;;;;;;7.77;32.64;100411.53;4486918;31;34226;-66
2022/04/17 03:25:24;;;;;;;;;;;;;;;7.92;31.67;100417.81;4489166;31;33916;-62
2022/04/17 03:27:53;;;;;;;;;;;;;;;7.69;32.87;100422.56;4497591;31;34745;-61
2022/04/17 03:30:22;;;;;;;;;;;;;;;7.81;32.49;100417.56;4490180;31;32822;-63
2022/04/17 03:32:51;;;;;;;;;;;;;;;7.83;32.95;100421.88;4482923;31;34068;-64
2022/04/17 03:35:19;;;;;;;;;;;;;;;7.81;31.91;100430.88;4486514;31;34099;-65
2022/04/17 03:37:48;;;;;;;;;;;;;;;7.80;32.39;100423.81;4497345;31;34944;-64
2022/04/17 03:40:16;;;;;;;;;;;;;;;7.36;32.60;100433.16;4496750;31;34370;-64
2022/04/17 03:42:44;;;;;;;;;;;;;;;7.67;33.76;100434.25;4497962;31;34965;-62
2022/04/17 03:45:14;;;;;;;;;;;;;;;7.86;33.52;100431.47;4497154;31;35366;-63
2022/04/17 03:47:44;;;;;;;;;;;;;;;7.90;32.54;100435.72;4496820;31;33382;-63
2022/04/17 03:50:12;;;;;;;;;;;;;;;8.21;32.35;100431.41;4491029;31;34104;-64
2022/04/17 03:52:45;;;;;;;;;;;;;;;7.85;31.86;100435.94;4483241;31;34290;-65
2022/04/17 03:55:14;;;;;;;;;;;;;;;7.86;32.08;100436.81;4483859;31;35272;-64
2022/04/17 03:57:43;;;;;;;;;;;;;;;7.53;32.38;100434.97;4483881;31;33553;-63
2022/04/17 04:00:13;;;;;;;;;;;;;;;7.68;32.25;100438.66;4482702;31;33361;-63
2022/04/17 04:02:42;;;;;;;;;;;;;;;7.92;32.89;100448.00;4492343;31;33248;-63
2022/04/17 04:05:11;;;;;;;;;;;;;;;7.52;34.32;100451.03;4494250;31;34063;-62
2022/04/17 04:07:39;;;;;;;;;;;;;;;7.94;32.26;100448.81;4493566;31;34320;-63
2022/04/17 04:10:08;;;;;;;;;;;;;;;7.81;33.59;100449.53;4485440;31;33091;-64
2022/04/17 04:12:37;;;;;;;;;;;;;;;7.73;31.99;100449.91;4482435;32;34132;-62
2022/04/17 04:15:06;;;;;;;;;;;;;;;7.40;33.39;100458.69;4480850;32;33282;-63
2022/04/17 04:17:34;;;;;;;;;;;;;;;8.12;33.43;100451.41;4495655;31;33915;-62
2022/04/17 04:20:02;;;;;;;;;;;;;;;7.87;32.40;100451.88;4489944;31;33402;-64
2022/04/17 04:22:31;;;;;;;;;;;;;;;8.27;33.33;100449.75;4483992;32;34515;-62
2022/04/17 04:24:59;;;;;;;;;;;;;;;8.60;35.22;100455.97;4485217;31;34405;-63
2022/04/17 04:30:14;;;;;;;;;;;;;;;8.69;31.68;100459.03;4492809;31;34409;-64
2022/04/17 04:32:56;;;;;;;;;;;;;;;8.57;32.05;100456.12;4488053;31;34170;-62
2022/04/17 04:35:29;;;;;;;;;;;;;;;8.55;32.80;100458.00;4482399;31;35568;-63
2022/04/17 04:37:59;;;;;;;;;;;;;;;8.80;32.73;100462.84;4482890;32;34151;-65
2022/04/17 04:40:30;;;;;;;;;;;;;;;9.05;31.21;100464.09;4490198;31;33431;-65
2022/04/17 04:42:59;;;;;;;;;;;;;;;8.93;32.59;100454.16;4482597;31;34057;-62
2022/04/17 04:48:14;;;;;;;;;;;;;;;9.05;32.19;100470.34;4471373;32;33791;-64
2022/04/17 04:50:43;;;;;;;;;;;;;;;9.31;33.91;100459.97;4482012;31;34026;-65
2022/04/17 04:53:10;;;;;;;;;;;;;;;9.39;34.06;100464.84;4484156;31;34170;-63
2022/04/17 04:55:39;;;;;;;;;;;;;;;9.48;30.77;100465.19;4485548;31;35504;-62
2022/04/17 04:58:10;;;;;;;;;;;;;;;9.82;31.08;100455.13;4486941;31;34178;-64
2022/04/17 05:00:38;;;;;;;;;;;;;;;10.15;29.71;100459.41;4490835;31;32206;-65
2022/04/17 05:03:07;;;;;;;;;;;;;;;9.84;32.49;100460.41;4492304;31;35218;-63
2022/04/17 05:05:36;;;;;;;;;;;;;;;9.46;29.94;100464.37;4483995;31;34457;-64
2022/04/17 05:08:05;;;;;;;;;;;;;;;9.45;30.69;100461.81;4487726;31;34210;-61
2022/04/17 05:10:34;;;;;;;;;;;;;;;8.80;31.47;100462.00;4484780;31;32115;-65
2022/04/17 05:13:02;;;;;;;;;;;;;;;9.24;33.97;100463.91;4493844;31;33097;-63
2022/04/17 05:15:31;;;;;;;;;;;;;;;9.61;30.13;100462.62;4494823;31;34078;-63
2022/04/17 05:17:59;;;;;;;;;;;;;;;8.91;32.74;100464.91;4482401;31;34018;-64
2022/04/17 05:20:28;;;;;;;;;;;;;;;8.82;31.24;100458.25;4482456;31;32128;-62
2022/04/17 05:23:04;;;;;;;;;;;;;;;9.31;31.04;100465.31;4491492;31;34226;-66
2022/04/17 05:25:32;;;;;;;;;;;;;;;9.61;30.39;100462.62;4491056;31;33366;-67
2022/04/17 05:28:00;;;;;;;;;;;;;;;9.65;29.93;100464.16;4483313;31;34255;-65
2022/04/17 05:30:28;;;;;;;;;;;;;;;9.68;30.89;100457.78;4482444;31;32332;-66
2022/04/17 05:32:56;;;;;;;;;;;;;;;9.31;31.16;100465.31;4490947;31;34105;-66
2022/04/17 05:35:26;;;;;;;;;;;;;;;9.55;29.39;100463.84;4490815;31;34386;-64
2022/04/17 05:37:54;;;;;;;;;;;;;;;9.47;31.46;100460.78;4480916;31;34538;-66
2022/04/17 05:40:23;;;;;;;;;;;;;;;9.98;28.66;100465.75;4482382;31;34156;-66
2022/04/17 05:42:55;;;;;;;;;;;;;;;9.26;29.25;100467.37;4490474;31;33780;-64
2022/04/17 05:45:34;;;;;;;;;;;;;;;9.73;30.20;100461.06;4496589;31;32990;-64
2022/04/17 05:48:03;;;;;;;;;;;;;;;10.00;28.83;100462.03;4472355;32;35250;-64
2022/04/17 05:50:32;;;;;;;;;;;;;;;10.17;27.96;100460.16;4492720;31;33868;-62
2022/04/17 05:53:01;;;;;;;;;;;;;;;10.43;28.16;100462.12;4489322;31;34754;-63
2022/04/17 05:55:29;;;;;;;;;;;;;;;10.40;28.09;100453.38;4478856;31;33228;-65
2022/04/17 05:57:57;;;;;;;;;;;;;;;9.18;29.56;100461.59;4491172;31;34154;-65
2022/04/17 06:00:26;;;;;;;;;;;;;;;9.52;29.55;100460.50;4493320;31;32946;-65
2022/04/17 06:02:54;;;;;;;;;;;;;;;9.52;31.70;100464.03;4488699;31;34917;-64
2022/04/17 06:05:23;;;;;;;;;;;;;;;9.28;31.03;100461.00;4498232;31;34450;-66
2022/04/17 06:07:51;;;;;;;;;;;;;;;9.36;29.69;100457.87;4489718;31;33023;-67
2022/04/17 06:10:20;;;;;;;;;;;;;;;9.16;31.96;100455.50;4470656;31;33327;-66
2022/04/17 06:12:48;;;;;;;;;;;;;;;9.45;31.11;100462.69;4487841;31;34136;-65
2022/04/17 06:15:16;;;;;;;;;;;;;;;9.49;30.52;100464.22;4486450;31;34614;-64
2022/04/17 06:17:45;;;;;;;;;;;;;;;9.34;31.32;100459.75;4489037;31;34189;-66
2022/04/17 06:20:14;;;;;;;;;;;;;;;9.00;31.54;100467.06;4483416;31;34654;-65
2022/04/17 06:22:42;;;;;;;;;;;;;;;9.06;33.59;100465.84;4489813;31;34706;-67
2022/04/17 06:25:12;;;;;;;;;;;;;;;9.68;30.80;100465.81;4481984;31;35285;-66
2022/04/17 06:27:41;;;;;;;;;;;;;;;9.87;30.63;100463.75;4492294;31;33583;-66
2022/04/17 06:30:16;;;;;;;;;;;;;;;10.00;29.78;100453.16;4484585;31;32179;-66
2022/04/17 06:32:50;;;;;;;;;;;;;;;9.97;29.38;100466.72;4487316;31;33970;-66
2022/04/17 06:35:19;;;;;;;;;;;;;;;9.42;31.03;100465.53;4482914;31;34176;-65
2022/04/17 06:37:52;;;;;;;;;;;;;;;10.10;30.53;100464.16;4482985;31;34001;-66
2022/04/17 06:40:20;;;;;;;;;;;;;;;9.94;30.73;100467.75;4489973;31;34032;-65
2022/04/17 06:42:49;;;;;;;;;;;;;;;9.55;30.06;100466.53;4490347;31;34142;-65
2022/04/17 06:45:18;;;;;;;;;;;;;;;9.32;30.94;100467.03;4496356;31;33509;-66
2022/04/17 06:47:47;;;;;;;;;;;;;;;9.47;30.94;100470.59;4487920;31;35064;-67
2022/04/17 06:50:15;;;;;;;;;;;;;;;9.38;31.54;100463.13;4492984;31;34167;-64
2022/04/17 06:52:44;;;;;;;;;;;;;;;9.49;30.82;100458.00;4480534;31;33723;-66
2022/04/17 06:55:13;;;;;;;;;;;;;;;9.59;30.94;100469.88;4492063;31;33361;-65
2022/04/17 06:57:48;;;;;;;;;;;;;;;9.79;30.73;100474.03;4488358;31;34256;-65
2022/04/17 07:00:17;;;;;;;;;;;;;;;9.38;31.77;100471.16;4484327;31;33980;-66
2022/04/17 07:02:46;;;;;;;;;;;;;;;8.72;31.87;100473.06;4491281;31;34131;-64
2022/04/17 07:05:14;;;;;;;;;;;;;;;9.61;31.13;100478.66;4480757;31;35484;-67
2022/04/17 07:07:43;;;;;;;;;;;;;;;9.97;31.31;100470.25;4480135;31;34029;-67
2022/04/17 07:10:11;;;;;;;;;;;;;;;10.00;30.37;100459.38;4491300;31;34656;-65
2022/04/17 07:12:42;;;;;;;;;;;;;;;9.84;30.52;100463.94;4491786;31;32678;-67
2022/04/17 07:15:11;;;;;;;;;;;;;;;10.30;30.03;100455.78;4483356;31;33264;-65
2022/04/17 07:17:40;;;;;;;;;;;;;;;10.43;30.63;100464.78;4479898;31;32767;-73
2022/04/17 07:20:09;;;;;;;;;;;;;;;9.99;29.29;100457.66;4483007;31;32286;-64
2022/04/17 07:22:38;;;;;;;;;;;;;;;10.34;28.63;100468.03;4488134;31;33234;-65
2022/04/17 07:25:07;;;;;;;;;;;;;;;10.68;28.92;100465.91;4485796;31;34493;-64
2022/04/17 07:27:36;;;;;;;;;;;;;;;11.00;28.49;100468.31;4495801;31;33797;-65
2022/04/17 07:30:08;;;;;;;;;;;;;;;10.76;28.59;100468.09;4485659;31;33593;-66
2022/04/17 07:32:36;;;;;;;;;;;;;;;9.95;29.23;100466.84;4484518;31;34300;-66
2022/04/17 07:35:06;;;;;;;;;;;;;;;9.39;28.80;100468.38;4484250;31;33398;-69
2022/04/17 07:37:35;;;;;;;;;;;;;;;10.12;30.71;100473.81;4494637;31;34045;-66
2022/04/17 07:40:14;;;;;;;;;;;;;;;9.76;30.23;100468.91;4483275;31;32064;-70
2022/04/17 07:42:43;;;;;;;;;;;;;;;10.47;29.86;100460.97;4487680;31;33540;-66
2022/04/17 07:45:14;;;;;;;;;;;;;;;10.63;30.09;100463.53;4469249;31;876116;-66
2022/04/17 07:47:43;;;;;;;;;;;;;;;10.66;30.57;100462.47;4493586;31;33251;-66
2022/04/17 07:50:14;;;;;;;;;;;;;;;10.78;29.72;100461.66;4488687;31;32161;-66
2022/04/17 07:52:43;;;;;;;;;;;;;;;10.76;29.77;100457.41;4490598;31;33363;-66
2022/04/17 07:55:14;;;;;;;;;;;;;;;10.96;28.03;100457.81;4489026;31;33563;-66
2022/04/17 08:00:31;;;;;;;;;;;;;;;10.95;28.08;100458.78;4483868;31;32737;-66
2022/04/17 08:03:21;;;;;;;;;;;;;;;11.09;28.07;100449.84;4481851;32;33695;-66
2022/04/17 08:05:51;;;;;;;;;;;;;;;11.96;27.62;100440.41;4481956;32;33917;-66
2022/04/17 08:08:20;;;;;;;;;;;;;;;11.39;27.08;100446.94;4487792;31;34235;-66
2022/04/17 08:10:49;;;;;;;;;;;;;;;10.89;27.61;100448.47;4484634;31;33528;-66
2022/04/17 08:13:18;;;;;;;;;;;;;;;10.74;27.95;100444.09;4483568;31;33825;-66
2022/04/17 08:15:47;;;;;;;;;;;;;;;10.76;27.98;100449.38;4491578;31;33893;-66
2022/04/17 08:18:16;;;;;;;;;;;;;;;10.69;28.55;100440.87;4482466;31;34279;-67
2022/04/17 08:20:46;;;;;;;;;;;;;;;11.40;28.54;100442.44;4485448;31;33382;-66
2022/04/17 08:23:14;;;;;;;;;;;;;;;11.85;28.12;100437.63;4492234;31;33181;-66
2022/04/17 08:25:43;;;;;;;;;;;;;;;12.04;26.91;100431.84;4470267;32;33419;-66
2022/04/17 08:28:13;;;;;;;;;;;;;;;12.16;26.42;100425.59;4473329;31;32954;-66
2022/04/17 08:30:42;;;;;;;;;;;;;;;12.10;28.65;100426.91;4486774;31;34261;-66
2022/04/17 08:33:14;;;;;;;;;;;;;;;12.74;26.92;100432.16;4474197;31;33090;-67
2022/04/17 08:35:48;;;;;;;;;;;;;;;11.86;26.78;100413.37;4483557;31;32527;-66
2022/04/17 08:38:25;;;;;;;;;;;;;;;12.21;26.87;100423.47;4481987;31;35600;-66
2022/04/17 08:41:05;;;;;;;;;;;;;;;11.89;26.85;100426.56;4486939;31;33973;-66
2022/04/17 08:43:46;;;;;;;;;;;;;;;12.01;27.42;100416.81;4489369;31;32917;-66
2022/04/17 08:46:27;;;;;;;;;;;;;;;12.23;27.60;100417.97;4471858;32;33705;-66
2022/04/17 08:49:06;;;;;;;;;;;;;;;12.69;27.98;100420.06;4492806;31;33856;-66
2022/04/17 08:51:48;;;;;;;;;;;;;;;13.81;28.03;100408.97;4488204;31;32141;-66
2022/04/17 08:54:28;;;;;;;;;;;;;;;13.79;25.58;100395.63;4485278;31;33986;-66
2022/04/17 08:57:11;;;;;;;;;;;;;;;13.30;24.69;100403.94;4472048;31;33464;-66
2022/04/17 08:59:47;;;;;;;;;;;;;;;13.17;25.49;100401.28;4472549;31;32485;-65
2022/04/17 09:02:25;;;;;;;;;;;;;;;13.28;25.00;100399.50;4493903;31;34505;-69
2022/04/17 09:04:57;;;;;;;;;;;;;;;13.24;26.83;100394.44;4485549;31;33170;-67
2022/04/17 09:07:44;;;;;;;;;;;;;;;13.37;27.74;100380.97;4488920;31;33811;-66
2022/04/17 09:10:26;;;;;;;;;;;;;;;13.41;26.13;100377.91;4485431;31;33881;-67
2022/04/17 09:13:03;;;;;;;;;;;;;;;13.44;24.78;100383.06;4485949;31;34262;-66
2022/04/17 09:15:45;;;;;;;;;;;;;;;13.95;25.01;100382.69;4488560;31;34105;-66
2022/04/17 09:18:26;;;;;;;;;;;;;;;13.41;25.01;100387.81;4484809;31;33827;-66
2022/04/17 09:20:58;;;;;;;;;;;;;;;13.40;26.47;100375.34;4489615;31;34176;-67
2022/04/17 09:23:42;;;;;;;;;;;;;;;12.25;26.36;100373.94;4484846;31;32166;-66
2022/04/17 09:26:15;;;;;;;;;;;;;;;12.99;26.36;100373.94;4489998;31;33012;-66
2022/04/17 09:28:52;;;;;;;;;;;;;;;13.10;26.14;100362.37;4490838;31;33167;-65
2022/04/17 09:31:25;;;;;;;;;;;;;;;12.88;26.75;100365.84;4486975;31;32868;-65
2022/04/17 09:33:54;;;;;;;;;;;;;;;12.65;26.41;100360.34;4489399;31;33468;-67
2022/04/17 09:36:39;;;;;;;;;;;;;;;12.41;26.98;100348.69;4480585;31;33081;-67
2022/04/17 09:39:20;;;;;;;;;;;;;;;13.34;26.22;100347.09;4495647;31;33419;-66
2022/04/17 09:42:05;;;;;;;;;;;;;;;14.01;25.40;100346.34;4491779;31;33421;-67
2022/04/17 09:45:16;;;;;;;;;;;;;;;13.95;24.12;100333.38;4482913;31;33396;-67
2022/04/17 09:47:39;;;;;;;;;;;;;;;14.21;25.40;100348.31;4482747;32;32765;-67
2022/04/17 09:50:18;;;;;;;;;;;;;;;14.23;24.78;100340.12;4491399;31;34403;-69
2022/04/17 09:52:58;;;;;;;;;;;;;;;14.50;24.90;100339.69;4492882;31;33101;-67
2022/04/17 09:55:31;;;;;;;;;;;;;;;15.02;23.90;100339.94;4494228;31;33333;-67
2022/04/17 09:58:14;;;;;;;;;;;;;;;15.02;23.67;100327.31;4497201;31;34144;-68
2022/04/17 10:00:58;;;;;;;;;;;;;;;15.53;24.34;100323.00;4490879;31;34601;-67
2022/04/17 10:03:38;;;;;;;;;;;;;;;16.34;23.02;100318.63;4476056;32;33862;-66
2022/04/17 10:06:25;;;;;;;;;;;;;;;17.02;21.12;100323.31;4491066;31;33463;-66
2022/04/17 10:09:06;;;;;;;;;;;;;;;16.26;21.43;100315.72;4498583;31;32548;-67
2022/04/17 10:11:48;;;;;;;;;;;;;;;15.90;21.87;100315.31;4488452;31;33483;-67
2022/04/17 10:14:35;;;;;;;;;;;;;;;15.89;23.19;100310.91;4493442;31;33276;-66
2022/04/17 10:17:15;;;;;;;;;;;;;;;15.46;23.12;100309.19;4486026;31;32262;-65
2022/04/17 10:19:59;;;;;;;;;;;;;;;15.30;22.88;100304.28;4495046;31;34151;-66
2022/04/17 10:22:35;;;;;;;;;;;;;;;15.59;22.58;100306.28;4469909;32;32471;-67
2022/04/17 10:25:16;;;;;;;;;;;;;;;15.72;23.04;100300.72;4483011;32;34140;-66
2022/04/17 10:27:57;;;;;;;;;;;;;;;15.27;22.00;100291.03;4471793;32;32041;-66
2022/04/17 10:31:09;;;;;;;;;;;;;;;15.46;22.33;100300.25;4480205;31;35265;-66
2022/04/17 10:34:09;;;;;;;;;;;;;;;15.13;22.84;100281.44;4413700;32;33117;-66
2022/04/17 10:36:50;;;;;;;;;;;;;;;15.24;25.33;100272.44;4486610;31;34187;-69
2022/04/17 10:39:36;;;;;;;;;;;;;;;15.95;23.04;100286.03;4494094;31;33524;-67
2022/04/17 10:42:15;;;;;;;;;;;;;;;16.10;23.11;100273.03;4480923;31;32765;-70
2022/04/17 10:45:01;;;;;;;;;;;;;;;16.04;23.08;100274.44;4493638;31;33071;-66
2022/04/17 10:47:34;;;;;;;;;;;;;;;16.00;22.45;100273.00;4484334;31;33437;-66
2022/04/17 10:50:13;;;;;;;;;;;;;;;15.73;20.00;100261.94;4485233;31;33287;-66
2022/04/17 10:52:50;;;;;;;;;;;;;;;16.52;22.23;100262.03;4497435;31;33061;-67
2022/04/17 10:55:33;;;;;;;;;;;;;;;16.41;20.54;100254.91;4471969;31;33088;-65
2022/04/17 10:58:08;;;;;;;;;;;;;;;15.11;21.03;100251.06;4476740;32;33321;-64
2022/04/17 11:00:43;;;;;;;;;;;;;;;15.13;21.62;100251.78;4469846;31;32105;-66
2022/04/17 11:03:27;;;;;;;;;;;;;;;15.42;20.73;100255.66;4468793;32;33166;-66
2022/04/17 11:06:22;;;;;;;;;;;;;;;15.36;21.26;100240.84;4473767;32;32405;-66
2022/04/17 11:09:17;;;;;;;;;;;;;;;15.24;20.42;100253.56;4483360;32;32857;-65
2022/04/17 11:11:51;;;;;;;;;;;;;;;14.26;20.37;100250.16;4482045;31;34132;-64
2022/04/17 11:14:23;;;;;;;;;;;;;;;13.96;21.47;100238.22;4488115;31;32846;-64
2022/04/17 11:16:58;;;;;;;;;;;;;;;14.65;21.34;100228.03;4486520;31;32993;-66
2022/04/17 11:19:40;;;;;;;;;;;;;;;15.67;21.08;100230.13;4483878;32;33993;-65
2022/04/17 11:22:20;;;;;;;;;;;;;;;15.41;20.84;100222.44;4490052;31;32191;-65
2022/04/17 11:25:02;;;;;;;;;;;;;;;15.30;21.32;100222.50;4485500;31;34424;-68
2022/04/17 11:27:35;;;;;;;;;;;;;;;16.13;20.43;100223.31;4492689;31;35263;-67
2022/04/17 11:30:28;;;;;;;;;;;;;;;15.99;20.72;100214.59;4493876;31;33426;-72
2022/04/17 11:33:01;;;;;;;;;;;;;;;16.14;20.55;100219.59;4474260;31;33398;-66
2022/04/17 11:35:39;;;;;;;;;;;;;;;15.93;20.10;100211.59;4495720;31;34930;-63
2022/04/17 11:38:18;;;;;;;;;;;;;;;14.89;21.04;100218.84;4470354;32;35535;-64
2022/04/17 11:40:57;;;;;;;;;;;;;;;15.26;23.38;100210.28;4481667;32;34261;-65
2022/04/17 11:43:29;;;;;;;;;;;;;;;15.81;21.26;100206.31;4482362;31;32857;-66
2022/04/17 11:45:58;;;;;;;;;;;;;;;16.30;23.68;100199.16;4461376;31;34571;-65
2022/04/17 11:48:30;;;;;;;;;;;;;;;17.08;20.41;100198.28;4464462;31;33723;-66
2022/04/17 11:51:00;;;;;;;;;;;;;;;16.87;22.74;100199.34;4465900;31;34741;-65
2022/04/17 11:53:31;;;;;;;;;;;;;;;16.86;20.89;100194.09;4490590;31;33458;-64
2022/04/17 11:56:01;;;;;;;;;;;;;;;16.74;20.63;100190.66;4488195;31;34300;-63
2022/04/17 11:58:34;;;;;;;;;;;;;;;16.11;20.88;100198.28;4483700;31;32871;-65
2022/04/17 12:01:14;;;;;;;;;;;;;;;15.58;21.30;100202.91;4484467;31;32926;-63
2022/04/17 12:03:48;;;;;;;;;;;;;;;15.42;21.89;100197.19;4468813;31;32757;-63
2022/04/17 12:06:27;;;;;;;;;;;;;;;16.49;19.48;100197.47;4483740;31;34325;-63
2022/04/17 12:09:05;;;;;;;;;;;;;;;15.55;21.51;100187.00;4495110;31;33387;-65
2022/04/17 12:11:40;;;;;;;;;;;;;;;15.51;20.31;100184.72;4468731;32;34425;-65
2022/04/17 12:14:30;;;;;;;;;;;;;;;15.28;20.39;100186.72;4482924;31;34484;-63
2022/04/17 12:17:04;;;;;;;;;;;;;;;15.69;20.22;100183.09;4493212;31;34048;-63
2022/04/17 12:19:50;;;;;;;;;;;;;;;15.79;19.48;100169.63;4471982;31;34146;-62
2022/04/17 12:22:32;;;;;;;;;;;;;;;16.02;21.52;100163.03;4486741;31;34406;-64
2022/04/17 12:25:22;;;;;;;;;;;;;;;16.20;20.80;100178.53;4468347;31;33153;-62
2022/04/17 12:28:01;;;;;;;;;;;;;;;15.12;20.77;100176.44;4495562;31;33957;-62
2022/04/17 12:30:34;;;;;;;;;;;;;;;14.90;21.01;100178.28;4472113;32;32654;-62
2022/04/17 12:33:22;;;;;;;;;;;;;;;15.20;23.81;100173.06;4468519;31;32664;-63
2022/04/17 12:36:01;;;;;;;;;;;;;;;15.02;22.97;100165.56;4483909;31;32083;-65
2022/04/17 12:38:32;;;;;;;;;;;;;;;15.58;22.08;100165.16;4485640;31;35258;-64
2022/04/17 12:41:15;;;;;;;;;;;;;;;15.53;23.63;100164.69;4484003;31;36309;-61
2022/04/17 12:43:47;;;;;;;;;;;;;;;15.42;21.04;100161.25;4479526;32;32834;-63
2022/04/17 12:46:43;;;;;;;;;;;;;;;15.75;20.82;100160.13;4467973;31;32246;-63
2022/04/17 12:49:22;;;;;;;;;;;;;;;16.08;20.31;100145.41;4482408;31;33405;-62
2022/04/17 12:51:53;;;;;;;;;;;;;;;15.17;21.02;100151.78;4481269;31;32861;-65
2022/04/17 12:54:22;;;;;;;;;;;;;;;15.23;21.65;100143.16;4465787;31;33654;-62
2022/04/17 12:57:00;;;;;;;;;;;;;;;14.51;22.35;100143.97;4468017;32;31659;-63
2022/04/17 12:59:42;;;;;;;;;;;;;;;14.77;21.05;100134.53;4468817;31;33749;-61
2022/04/17 13:02:13;;;;;;;;;;;;;;;15.33;21.29;100134.09;4498096;31;32916;-64
2022/04/17 13:04:42;;;;;;;;;;;;;;;15.25;20.80;100133.06;4494137;31;34488;-63
2022/04/17 13:07:15;;;;;;;;;;;;;;;15.52;20.74;100119.84;4482840;31;33140;-62
2022/04/17 13:09:54;;;;;;;;;;;;;;;15.41;19.98;100119.06;4486074;31;33916;-63
2022/04/17 13:12:39;;;;;;;;;;;;;;;15.29;22.50;100124.59;4492794;31;33404;-63
2022/04/17 13:15:07;;;;;;;;;;;;;;;15.07;21.70;100117.53;4469197;31;33957;-63
2022/04/17 13:17:50;;;;;;;;;;;;;;;15.01;20.47;100115.37;4469714;32;33976;-62
2022/04/17 13:20:19;;;;;;;;;;;;;;;14.74;20.34;100115.09;4481639;32;33140;-62
2022/04/17 13:22:49;;;;;;;;;;;;;;;14.47;23.50;100108.31;4488798;31;34155;-63
2022/04/17 13:25:20;;;;;;;;;;;;;;;14.49;21.83;100117.16;4490555;31;35821;-62
2022/04/17 13:27:50;;;;;;;;;;;;;;;15.07;20.51;100122.91;4482140;31;32182;-62